createdAt,value
2023-02-27T00:00:55.012Z,47.08
2023-02-27T00:03:21.709Z,47.28
2023-02-27T00:05:48.216Z,47.29
2023-02-27T00:08:14.920Z,47.56
2023-02-27T00:10:41.428Z,47.33
2023-02-27T00:13:08.018Z,47.68
2023-02-27T00:15:35.163Z,47.80
2023-02-27T00:18:01.817Z,47.71
2023-02-27T00:20:28.756Z,47.93
2023-02-27T00:22:55.205Z,46.02
2023-02-27T00:25:21.762Z,47.59
2023-02-27T00:27:48.260Z,47.75
2023-02-27T00:30:15.890Z,48.08
2023-02-27T00:32:45.723Z,48.13
2023-02-27T00:35:12.793Z,48.33
2023-02-27T00:37:40.161Z,48.14
2023-02-27T00:40:07.532Z,48.00
2023-02-27T00:42:34.916Z,48.30
2023-02-27T00:45:01.470Z,48.30
2023-02-27T00:47:28.038Z,48.55
2023-02-27T00:49:54.578Z,48.49
2023-02-27T00:52:21.078Z,48.36
2023-02-27T00:54:47.530Z,48.22
2023-02-27T00:57:14.181Z,47.91
2023-02-27T00:59:41.169Z,48.19
2023-02-27T01:02:08.035Z,48.28
2023-02-27T01:04:34.486Z,46.58
2023-02-27T01:07:01.223Z,48.36
2023-02-27T01:09:27.752Z,48.48
2023-02-27T01:11:54.282Z,48.60
2023-02-27T01:14:20.925Z,48.71
2023-02-27T01:16:47.394Z,48.75
2023-02-27T01:19:13.899Z,48.73
2023-02-27T01:21:42.166Z,48.64
2023-02-27T01:24:10.233Z,48.86
2023-02-27T01:26:37.012Z,48.91
2023-02-27T01:29:06.187Z,47.33
2023-02-27T01:31:33.107Z,48.72
2023-02-27T01:33:59.631Z,48.85
2023-02-27T01:36:26.230Z,49.33
2023-02-27T01:38:52.817Z,49.06
2023-02-27T01:41:19.296Z,49.06
2023-02-27T01:43:59.651Z,49.21
2023-02-27T01:46:27.347Z,49.70
2023-02-27T01:48:59.726Z,49.35
2023-02-27T01:51:30.183Z,49.47
2023-02-27T01:53:57.740Z,49.42
2023-02-27T01:56:27.392Z,49.68
2023-02-27T01:58:58.904Z,49.64
2023-02-27T02:01:26.776Z,49.33
2023-02-27T02:04:07.041Z,48.88
2023-02-27T02:06:37.483Z,49.27
2023-02-27T02:09:05.074Z,49.24
2023-02-27T02:11:31.739Z,49.55
2023-02-27T02:14:01.425Z,49.09
2023-02-27T02:16:52.150Z,48.84
2023-02-27T02:19:49.681Z,48.38
2023-02-27T02:22:34.531Z,48.41
2023-02-27T02:25:19.825Z,48.18
2023-02-27T02:27:55.564Z,48.65
2023-02-27T02:30:35.205Z,49.29
2023-02-27T02:33:26.123Z,49.53
2023-02-27T02:36:22.951Z,49.31
2023-02-27T02:39:02.001Z,49.80
2023-02-27T02:41:55.651Z,49.55
2023-02-27T02:44:34.647Z,50.11
2023-02-27T02:47:19.336Z,50.30
2023-02-27T02:50:14.927Z,50.00
2023-02-27T02:53:09.311Z,49.02
2023-02-27T02:55:51.131Z,49.46
2023-02-27T02:58:32.549Z,49.48
2023-02-27T03:01:14.817Z,49.78
2023-02-27T03:03:49.078Z,49.94
2023-02-27T03:06:34.037Z,49.41
2023-02-27T03:09:12.164Z,49.95
2023-02-27T03:11:43.689Z,50.25
2023-02-27T03:14:18.879Z,50.17
2023-02-27T03:16:50.282Z,50.32
2023-02-27T03:19:31.026Z,49.81
2023-02-27T03:22:01.044Z,50.43
2023-02-27T03:24:36.817Z,50.16
2023-02-27T03:27:06.638Z,50.27
2023-02-27T03:29:46.704Z,50.23
2023-02-27T03:32:31.037Z,49.79
2023-02-27T03:34:57.734Z,49.96
2023-02-27T03:38:00.116Z,49.78
2023-02-27T03:40:37.932Z,49.60
2023-02-27T03:43:07.410Z,50.06
2023-02-27T03:45:42.548Z,50.43
2023-02-27T03:48:09.228Z,50.41
2023-02-27T03:50:37.431Z,50.49
2023-02-27T03:53:09.071Z,50.66
2023-02-27T03:55:41.216Z,50.80
2023-02-27T03:58:08.104Z,50.67
2023-02-27T04:00:34.906Z,50.93
2023-02-27T04:03:02.306Z,48.80
2023-02-27T04:05:29.525Z,50.35
2023-02-27T04:08:26.902Z,50.28
2023-02-27T04:11:08.258Z,50.23
2023-02-27T04:14:02.624Z,50.18
2023-02-27T04:16:37.892Z,50.48
2023-02-27T04:19:50.789Z,49.98
2023-02-27T04:22:45.301Z,49.94
2023-02-27T04:25:54.522Z,49.92
2023-02-27T04:28:35.152Z,50.73
2023-02-27T04:31:08.845Z,50.58
2023-02-27T04:33:51.961Z,50.86
2023-02-27T04:36:34.367Z,50.88
2023-02-27T04:39:09.718Z,51.33
2023-02-27T04:41:41.697Z,55.90
2023-02-27T04:44:10.200Z,59.70
2023-02-27T04:46:40.798Z,63.06
2023-02-27T04:49:16.279Z,65.17
2023-02-27T04:52:02.698Z,66.03
2023-02-27T04:54:34.723Z,67.69
2023-02-27T04:57:07.796Z,68.30
2023-02-27T04:59:43.259Z,69.09
2023-02-27T05:02:19.966Z,69.13
2023-02-27T05:04:49.112Z,69.01
2023-02-27T05:07:19.624Z,69.04
2023-02-27T05:09:55.352Z,67.34
2023-02-27T05:12:28.623Z,60.50
2023-02-27T05:15:04.046Z,54.50
2023-02-27T05:17:37.377Z,51.67
2023-02-27T05:20:08.897Z,49.93
2023-02-27T05:23:07.552Z,49.04
2023-02-27T05:25:41.318Z,46.66
2023-02-27T05:28:13.781Z,45.54
2023-02-27T05:30:53.306Z,51.76
2023-02-27T05:36:38.498Z,54.31
2023-02-27T05:39:08.964Z,56.00
2023-02-27T05:41:50.077Z,55.13
2023-02-27T05:44:21.361Z,55.63
2023-02-27T05:46:58.982Z,54.13
2023-02-27T05:49:33.762Z,50.64
2023-02-27T05:52:04.169Z,48.24
2023-02-27T05:54:54.097Z,48.73
2023-02-27T05:57:29.165Z,46.65
2023-02-27T06:00:03.404Z,45.96
2023-02-27T06:02:30.220Z,46.49
2023-02-27T06:04:56.648Z,47.34
2023-02-27T06:07:25.162Z,45.89
2023-02-27T06:09:52.037Z,45.48
2023-02-27T06:12:19.368Z,46.63
2023-02-27T06:14:45.847Z,46.04
2023-02-27T06:17:12.342Z,46.53
2023-02-27T06:19:38.821Z,46.47
2023-02-27T06:22:05.450Z,46.41
2023-02-27T06:24:32.013Z,46.55
2023-02-27T06:26:58.735Z,46.98
2023-02-27T06:29:25.214Z,47.01
2023-02-27T06:31:51.728Z,47.53
2023-02-27T06:34:18.263Z,47.93
2023-02-27T06:36:44.747Z,48.09
2023-02-27T06:39:12.025Z,48.00
2023-02-27T06:41:38.523Z,48.53
2023-02-27T06:44:05.272Z,48.21
2023-02-27T06:46:31.775Z,47.75
2023-02-27T06:48:58.424Z,48.78
2023-02-27T06:51:24.942Z,49.09
2023-02-27T06:53:51.905Z,49.30
2023-02-27T06:56:18.523Z,49.43
2023-02-27T06:58:45.030Z,49.79
2023-02-27T07:01:12.277Z,50.33
2023-02-27T07:03:39.060Z,50.64
2023-02-27T07:06:05.743Z,49.00
2023-02-27T07:08:32.228Z,50.59
2023-02-27T07:10:58.860Z,51.16
2023-02-27T07:13:25.353Z,51.47
2023-02-27T07:15:52.475Z,51.54
2023-02-27T07:18:19.016Z,51.56
2023-02-27T07:20:45.553Z,51.41
2023-02-27T07:23:12.047Z,51.80
2023-02-27T07:25:38.552Z,51.79
2023-02-27T07:28:05.263Z,52.06
2023-02-27T07:30:31.742Z,52.02
2023-02-27T07:32:58.280Z,52.27
2023-02-27T07:35:25.197Z,52.50
2023-02-27T07:37:51.656Z,50.81
2023-02-27T07:40:18.302Z,52.76
2023-02-27T07:42:47.446Z,52.99
2023-02-27T07:45:14.143Z,53.44
2023-02-27T07:47:40.837Z,53.30
2023-02-27T07:50:07.711Z,53.29
2023-02-27T07:52:34.156Z,51.11
2023-02-27T07:55:00.748Z,53.22
2023-02-27T07:57:27.248Z,53.20
2023-02-27T07:59:53.729Z,53.07
2023-02-27T08:02:20.295Z,53.29
2023-02-27T08:04:46.814Z,53.16
2023-02-27T08:07:13.362Z,53.08
2023-02-27T08:09:39.865Z,53.37
2023-02-27T08:12:06.596Z,53.61
2023-02-27T08:14:33.088Z,52.78
2023-02-27T08:17:00.687Z,52.81
2023-02-27T08:19:27.283Z,52.56
2023-02-27T08:21:53.763Z,52.34
2023-02-27T08:24:20.288Z,51.93
2023-02-27T08:26:46.787Z,51.58
2023-02-27T08:29:15.118Z,51.35
2023-02-27T08:31:42.723Z,51.42
2023-02-27T08:34:10.932Z,50.58
2023-02-27T08:36:37.977Z,50.17
2023-02-27T08:39:05.885Z,49.97
2023-02-27T08:41:32.523Z,49.79
2023-02-27T08:43:59.068Z,49.86
2023-02-27T08:46:26.931Z,49.56
2023-02-27T08:48:53.948Z,49.92
2023-02-27T08:51:20.317Z,49.46
2023-02-27T08:53:47.043Z,49.78
2023-02-27T08:56:13.491Z,48.97
2023-02-27T08:58:40.130Z,49.73
2023-02-27T09:01:06.624Z,49.85
2023-02-27T09:03:33.133Z,50.02
2023-02-27T09:05:59.612Z,49.96
2023-02-27T09:08:26.199Z,49.91
2023-02-27T09:10:56.121Z,49.71
2023-02-27T09:13:22.675Z,49.61
2023-02-27T09:15:49.224Z,49.63
2023-02-27T09:18:15.955Z,49.29
2023-02-27T09:20:43.201Z,49.00
2023-02-27T09:23:11.199Z,48.88
2023-02-27T09:25:37.742Z,49.05
2023-02-27T09:28:04.399Z,48.85
2023-02-27T09:30:35.799Z,48.84
2023-02-27T09:33:02.669Z,48.78
2023-02-27T09:35:29.164Z,48.37
2023-02-27T09:38:00.767Z,49.02
2023-02-27T09:40:30.692Z,49.14
2023-02-27T09:43:03.114Z,48.88
2023-02-27T09:45:39.494Z,48.12
2023-02-27T09:50:47.988Z,48.95
2023-02-27T09:53:26.994Z,48.85
2023-02-27T09:55:59.543Z,48.97
2023-02-27T09:58:45.704Z,48.97
2023-02-27T10:01:24.076Z,48.70
2023-02-27T10:04:11.119Z,48.32
2023-02-27T10:07:03.051Z,48.44
2023-02-27T10:12:39.913Z,48.24
2023-02-27T10:15:39.058Z,48.43
2023-02-27T10:18:27.033Z,48.12
2023-02-27T10:20:57.054Z,47.26
2023-02-27T10:23:54.159Z,47.76
2023-02-27T10:26:25.015Z,46.73
2023-02-27T10:28:51.497Z,46.42
2023-02-27T10:31:22.528Z,46.37
2023-02-27T10:33:49.795Z,45.50
2023-02-27T10:36:32.435Z,46.85
2023-02-27T10:39:05.763Z,44.31
2023-02-27T10:41:33.070Z,46.35
2023-02-27T10:44:00.562Z,44.10
2023-02-27T10:46:32.287Z,44.39
2023-02-27T10:49:00.726Z,42.87
2023-02-27T10:51:38.332Z,43.08
2023-02-27T10:54:19.105Z,43.98
2023-02-27T10:56:50.541Z,42.28
2023-02-27T10:59:20.599Z,41.56
2023-02-27T11:01:58.961Z,40.78
2023-02-27T11:04:33.361Z,42.18
2023-02-27T11:07:03.000Z,43.30
2023-02-27T11:09:33.930Z,42.00
2023-02-27T11:12:22.996Z,42.95
2023-02-27T11:14:55.691Z,41.30
2023-02-27T11:17:28.921Z,41.27
2023-02-27T11:19:57.229Z,40.55
2023-02-27T11:22:26.301Z,40.53
2023-02-27T11:25:16.478Z,42.76
2023-02-27T11:27:42.976Z,40.11
2023-02-27T11:30:28.523Z,41.85
2023-02-27T11:38:20.840Z,40.74
2023-02-27T11:40:54.385Z,39.71
2023-02-27T11:43:25.534Z,39.20
2023-02-27T11:46:05.052Z,39.02
2023-02-27T11:48:48.953Z,37.73
2023-02-27T11:51:28.632Z,39.99
2023-02-27T11:54:35.082Z,40.03
2023-02-27T11:57:22.282Z,39.65
2023-02-27T12:00:29.642Z,39.74
2023-02-27T12:03:05.278Z,37.78
2023-02-27T12:05:44.177Z,38.01
2023-02-27T12:08:18.228Z,37.51
2023-02-27T12:10:50.366Z,37.25
2023-02-27T12:13:24.781Z,38.21
2023-02-27T12:16:12.707Z,38.38
2023-02-27T12:18:53.708Z,37.96
2023-02-27T12:21:39.236Z,39.01
2023-02-27T12:24:16.056Z,36.94
2023-02-27T12:26:45.908Z,36.41
2023-02-27T12:29:53.622Z,39.52
2023-02-27T12:32:40.546Z,38.13
2023-02-27T12:35:15.926Z,37.63
2023-02-27T12:37:42.426Z,35.39
2023-02-27T12:40:15.552Z,35.54
2023-02-27T12:43:41.020Z,38.07
2023-02-27T12:46:33.656Z,36.70
2023-02-27T12:49:18.332Z,34.12
2023-02-27T12:51:59.664Z,35.42
2023-02-27T12:54:30.193Z,33.94
2023-02-27T12:57:15.247Z,36.64
2023-02-27T13:00:00.446Z,36.55
2023-02-27T13:02:45.535Z,35.28
2023-02-27T13:05:29.315Z,36.89
2023-02-27T13:08:20.453Z,37.41
2023-02-27T13:11:01.992Z,36.37
2023-02-27T13:13:39.129Z,35.62
2023-02-27T13:16:16.735Z,35.62
2023-02-27T13:19:04.610Z,36.34
2023-02-27T13:21:32.961Z,37.99
2023-02-27T13:24:28.046Z,37.17
2023-02-27T13:27:03.573Z,35.69
2023-02-27T13:29:47.725Z,37.41
2023-02-27T13:32:25.149Z,35.70
2023-02-27T13:35:13.649Z,36.22
2023-02-27T13:37:53.020Z,36.96
2023-02-27T13:40:41.267Z,37.04
2023-02-27T13:43:51.419Z,37.80
2023-02-27T13:46:30.799Z,37.96
2023-02-27T13:49:29.636Z,37.58
2023-02-27T13:51:59.597Z,35.87
2023-02-27T13:54:32.785Z,36.31
2023-02-27T13:56:59.242Z,34.81
2023-02-27T13:59:33.574Z,35.22
2023-02-27T14:02:10.513Z,34.80
2023-02-27T14:04:55.231Z,36.63
2023-02-27T14:07:26.578Z,33.68
2023-02-27T14:10:08.874Z,34.90
2023-02-27T14:12:45.838Z,36.78
2023-02-27T14:15:36.405Z,36.81
2023-02-27T14:18:17.862Z,34.79
2023-02-27T14:20:44.365Z,33.63
2023-02-27T14:23:20.633Z,34.83
2023-02-27T14:25:58.007Z,33.73
2023-02-27T14:28:30.510Z,36.44
2023-02-27T14:31:02.411Z,35.00
2023-02-27T14:33:46.824Z,35.08
2023-02-27T14:36:20.991Z,34.82
2023-02-27T14:38:49.145Z,34.75
2023-02-27T14:41:37.266Z,35.12
2023-02-27T14:44:04.085Z,35.07
2023-02-27T14:46:38.186Z,35.50
2023-02-27T14:49:15.844Z,35.45
2023-02-27T14:51:43.243Z,35.28
2023-02-27T14:54:16.803Z,36.32
2023-02-27T14:56:55.229Z,36.25
2023-02-27T14:59:26.502Z,36.97
2023-02-27T15:01:54.839Z,36.92
2023-02-27T15:04:25.961Z,36.65
2023-02-27T15:06:54.795Z,36.82
2023-02-27T15:09:33.003Z,37.43
2023-02-27T15:12:03.972Z,36.64
2023-02-27T15:14:36.834Z,38.64
2023-02-27T15:17:05.084Z,38.27
2023-02-27T15:19:32.044Z,37.49
2023-02-27T15:22:01.530Z,39.77
2023-02-27T15:24:49.593Z,38.74
2023-02-27T15:27:19.933Z,38.71
2023-02-27T15:29:55.363Z,39.69
2023-02-27T15:32:34.283Z,38.59
2023-02-27T15:35:04.840Z,38.65
2023-02-27T15:37:34.009Z,38.11
2023-02-27T15:40:01.625Z,37.60
2023-02-27T15:42:35.189Z,39.27
2023-02-27T15:45:04.175Z,38.42
2023-02-27T15:47:32.788Z,37.47
2023-02-27T15:50:25.520Z,38.79
2023-02-27T15:53:03.117Z,37.82
2023-02-27T15:55:34.236Z,37.21
2023-02-27T15:58:03.430Z,37.68
2023-02-27T16:00:34.093Z,46.22
2023-02-27T16:03:01.175Z,38.65
2023-02-27T16:05:34.619Z,38.28
2023-02-27T16:08:02.967Z,38.39
2023-02-27T16:10:35.744Z,35.77
2023-02-27T16:13:37.116Z,37.52
2023-02-27T16:16:05.175Z,35.52
2023-02-27T16:18:59.304Z,37.15
2023-02-27T16:21:27.953Z,35.96
2023-02-27T16:23:54.864Z,36.63
2023-02-27T16:31:18.969Z,38.52
2023-02-27T16:37:47.684Z,39.01
2023-02-27T16:58:47.165Z,38.75
2023-02-27T17:26:32.258Z,39.03
2023-02-27T17:28:31.519Z,38.58
2023-02-27T17:31:06.866Z,39.81
2023-02-27T17:33:41.855Z,39.15
2023-02-27T17:36:10.648Z,39.17
2023-02-27T17:38:37.543Z,39.14
2023-02-27T17:41:08.501Z,39.34
2023-02-27T17:43:35.256Z,38.91
2023-02-27T17:46:04.829Z,39.75
2023-02-27T17:48:31.397Z,39.79
2023-02-27T17:51:07.351Z,39.66
2023-02-27T17:53:35.279Z,39.93
2023-02-27T17:56:02.082Z,39.84
2023-02-27T17:58:28.672Z,39.95
2023-02-27T18:00:55.388Z,40.37
2023-02-27T18:03:21.959Z,40.55
2023-02-27T18:05:50.646Z,40.91
2023-02-27T18:08:17.764Z,41.23
2023-02-27T18:10:51.363Z,41.34
2023-02-27T18:13:19.443Z,41.09
2023-02-27T18:15:46.392Z,41.62
2023-02-27T18:18:13.520Z,41.93
2023-02-27T18:20:40.614Z,41.99
2023-02-27T18:23:09.372Z,42.05
2023-02-27T18:25:37.214Z,41.98
2023-02-27T18:28:04.920Z,42.26
2023-02-27T18:30:35.836Z,42.21
2023-02-27T18:33:02.623Z,42.43
2023-02-27T18:35:29.225Z,41.47
2023-02-27T18:37:57.023Z,42.29
2023-02-27T18:40:25.063Z,42.81
2023-02-27T18:42:55.413Z,42.76
2023-02-27T18:45:22.638Z,42.93
2023-02-27T18:47:49.527Z,42.95
2023-02-27T18:50:16.475Z,41.95
2023-02-27T18:52:43.163Z,43.15
2023-02-27T18:55:09.987Z,43.11
2023-02-27T18:57:36.455Z,41.88
2023-02-27T19:00:05.007Z,42.98
2023-02-27T19:02:31.716Z,43.07
2023-02-27T19:04:58.344Z,43.17
2023-02-27T19:07:25.516Z,43.18
2023-02-27T19:09:52.070Z,43.48
2023-02-27T19:12:18.646Z,43.37
2023-02-27T19:14:45.254Z,43.53
2023-02-27T19:17:11.913Z,43.45
2023-02-27T19:19:38.573Z,43.87
2023-02-27T19:22:05.133Z,43.84
2023-02-27T19:24:31.818Z,43.69
2023-02-27T19:26:58.410Z,43.96
2023-02-27T19:29:24.968Z,44.02
2023-02-27T19:31:51.649Z,43.84
2023-02-27T19:34:18.336Z,43.97
2023-02-27T19:36:45.197Z,43.96
2023-02-27T19:39:11.668Z,42.99
2023-02-27T19:41:38.304Z,43.72
2023-02-27T19:44:05.153Z,43.90
2023-02-27T19:46:33.237Z,42.71
2023-02-27T19:49:03.086Z,43.90
2023-02-27T19:51:30.187Z,44.09
2023-02-27T19:53:56.995Z,44.04
2023-02-27T19:56:24.762Z,43.21
2023-02-27T19:58:51.988Z,44.10
2023-02-27T20:01:27.875Z,44.38
2023-02-27T20:03:56.030Z,44.63
2023-02-27T20:06:25.250Z,44.74
2023-02-27T20:08:52.567Z,44.60
2023-02-27T20:11:20.971Z,44.95
2023-02-27T20:13:49.864Z,45.27
2023-02-27T20:16:18.911Z,45.46
2023-02-27T20:18:45.945Z,45.54
2023-02-27T20:21:15.365Z,45.33
2023-02-27T20:23:44.337Z,45.49
2023-02-27T20:26:24.760Z,45.23
2023-02-27T20:28:53.063Z,45.34
2023-02-27T20:31:22.179Z,45.23
2023-02-27T20:33:49.940Z,45.25
2023-02-27T20:36:16.991Z,45.49
2023-02-27T20:38:43.579Z,45.48
2023-02-27T20:41:13.917Z,45.34
2023-02-27T20:43:42.961Z,45.25
2023-02-27T20:46:13.188Z,45.51
2023-02-27T20:48:40.402Z,45.30
2023-02-27T20:51:16.087Z,45.37
2023-02-27T20:53:45.052Z,45.13
2023-02-27T20:56:11.714Z,44.76
2023-02-27T20:58:39.298Z,44.80
2023-02-27T21:01:14.010Z,45.00
2023-02-27T21:03:42.767Z,44.75
2023-02-27T21:06:12.078Z,45.03
2023-02-27T21:08:40.388Z,45.56
2023-02-27T21:11:14.759Z,45.58
2023-02-27T21:13:41.342Z,45.74
2023-02-27T21:16:09.870Z,45.51
2023-02-27T21:18:38.009Z,45.41
2023-02-27T21:21:09.819Z,45.40
2023-02-27T21:23:41.296Z,45.59
2023-02-27T21:26:09.817Z,45.29
2023-02-27T21:28:42.206Z,45.42
2023-02-27T21:31:08.901Z,45.50
2023-02-27T21:33:35.600Z,45.89
2023-02-27T21:36:02.592Z,45.77
2023-02-27T21:38:29.552Z,45.97
2023-02-27T21:40:56.945Z,46.42
2023-02-27T21:43:23.733Z,46.58
2023-02-27T21:45:52.069Z,44.70
2023-02-27T21:48:18.668Z,46.10
2023-02-27T21:50:45.236Z,46.39
2023-02-27T21:53:11.731Z,46.47
2023-02-27T21:55:38.404Z,46.45
2023-02-27T21:58:07.324Z,46.73
2023-02-27T22:00:37.140Z,46.72
2023-02-27T22:03:04.354Z,46.54
2023-02-27T22:05:30.872Z,46.82
2023-02-27T22:07:57.596Z,46.62
2023-02-27T22:10:24.057Z,46.57
2023-02-27T22:12:50.880Z,46.37
2023-02-27T22:15:17.340Z,45.18
2023-02-27T22:17:43.893Z,46.55
2023-02-27T22:20:11.665Z,46.23
2023-02-27T22:22:38.324Z,46.60
2023-02-27T22:25:05.146Z,46.61
2023-02-27T22:27:31.848Z,44.91
2023-02-27T22:29:58.477Z,46.16
2023-02-27T22:32:25.120Z,46.34
2023-02-27T22:34:51.690Z,46.50
2023-02-27T22:37:19.844Z,46.42
2023-02-27T22:39:46.530Z,46.49
2023-02-27T22:42:13.692Z,46.55
2023-02-27T22:44:40.278Z,46.79
2023-02-27T22:47:06.815Z,46.67
2023-02-27T22:49:33.454Z,46.82
2023-02-27T22:51:59.989Z,46.97
2023-02-27T22:54:26.531Z,46.99
2023-02-27T22:56:55.272Z,47.20
2023-02-27T22:59:23.788Z,47.53
2023-02-27T23:01:50.653Z,45.45
2023-02-27T23:04:17.373Z,47.53
2023-02-27T23:06:45.580Z,47.68
2023-02-27T23:09:16.053Z,47.86
2023-02-27T23:11:43.131Z,48.14
2023-02-27T23:14:10.331Z,48.39
2023-02-27T23:16:36.994Z,48.18
2023-02-27T23:19:04.698Z,48.42
2023-02-27T23:21:37.109Z,48.40
2023-02-27T23:24:09.133Z,48.54
2023-02-27T23:26:40.703Z,48.87
2023-02-27T23:29:08.718Z,48.53
2023-02-27T23:31:36.652Z,48.62
2023-02-27T23:34:05.833Z,48.76
2023-02-27T23:36:35.838Z,48.68
2023-02-27T23:39:03.598Z,48.88
2023-02-27T23:41:30.505Z,48.60
2023-02-27T23:43:57.330Z,48.89
2023-02-27T23:46:23.851Z,48.90
2023-02-27T23:48:50.413Z,48.63
2023-02-27T23:51:16.980Z,48.47
2023-02-27T23:53:43.558Z,48.59
2023-02-27T23:56:20.466Z,48.40
2023-02-27T23:58:48.976Z,48.72
